Time;durP1;ratioP1;P1;durP2;ratioP2;P2;SDS_P1;SDS_P2;PMS_P1;PMS_P2;Temp;Humidity;BMP_temperature;BMP_pressure;BME280_temperature;BME280_humidity;BME280_pressure;Samples;Min_cycle;Max_cycle;Signal;HPM_P1;HPM_P2
2022/02/10 00:08:34;;;;;;;17.00;12.55;;;25.20;88.50;;;;;;1875530;76;21155;-83
2022/02/10 00:23:24;;;;;;;19.20;13.03;;;25.00;88.90;;;;;;1873448;76;21100;-83
2022/02/10 00:36:05;;;;;;;18.92;11.83;;;25.00;89.30;;;;;;1841056;78;21143;-84
2022/02/10 00:38:17;;;;;;;16.73;11.40;;;25.00;89.30;;;;;;1871960;76;21245;-83
2022/02/10 00:40:46;;;;;;;15.80;11.88;;;25.10;89.20;;;;;;1847626;76;21233;-82
2022/02/10 00:43:17;;;;;;;19.25;13.32;;;25.10;88.80;;;;;;1855729;76;21197;-82
2022/02/10 00:45:48;;;;;;;21.00;13.13;;;25.10;88.60;;;;;;1852147;76;21098;-82
2022/02/10 00:48:20;;;;;;;22.22;13.75;;;25.10;89.20;;;;;;1858058;76;21092;-82
2022/02/10 00:50:52;;;;;;;21.57;13.20;;;25.10;89.30;;;;;;1875526;75;21670;-83
2022/02/10 00:53:27;;;;;;;20.70;13.78;;;25.20;88.60;;;;;;1865398;75;21088;-81
2022/02/10 00:55:55;;;;;;;23.57;13.40;;;25.20;89.00;;;;;;1860082;75;21713;-82
2022/02/10 00:58:29;;;;;;;21.65;14.07;;;25.20;89.40;;;;;;1856678;76;21167;-81
2022/02/10 01:11:31;;;;;;;20.43;13.72;;;25.30;89.10;;;;;;1793609;79;21543;-82
2022/02/10 01:13:54;;;;;;;16.90;13.13;;;25.30;89.40;;;;;;1817333;78;21268;-81
2022/02/10 01:31:27;;;;;;;17.77;10.50;;;25.50;87.90;;;;;;1804338;78;21084;-70
2022/02/10 01:33:58;;;;;;;17.07;11.18;;;25.50;87.90;;;;;;1849506;76;21233;-71
2022/02/10 01:36:29;;;;;;;15.28;10.63;;;25.60;87.90;;;;;;1844820;78;21240;-71
2022/02/10 01:39:00;;;;;;;14.35;10.72;;;25.60;87.70;;;;;;1869474;76;21096;-71
2022/02/10 02:04:24;;;;;;;12.15;8.53;;;26.10;83.90;;;;;;1873615;75;21717;-72
2022/02/10 02:06:57;;;;;;;14.20;8.60;;;26.10;83.70;;;;;;1882283;74;21749;-72
2022/02/10 02:09:28;;;;;;;11.83;7.60;;;26.10;83.60;;;;;;1870454;75;21610;-73
2022/02/10 02:11:59;;;;;;;11.53;7.70;;;26.20;82.90;;;;;;1872651;75;21154;-72
2022/02/10 02:14:29;;;;;;;13.80;8.23;;;26.10;82.90;;;;;;1887412;75;21107;-72
2022/02/10 02:17:03;;;;;;;12.18;8.03;;;26.20;83.10;;;;;;1896652;75;21088;-71
2022/02/10 02:19:34;;;;;;;10.93;7.97;;;26.20;83.10;;;;;;1886056;75;21182;-72
2022/02/10 02:22:07;;;;;;;12.53;8.73;;;26.20;82.50;;;;;;1874808;75;21129;-72
2022/02/10 02:24:38;;;;;;;11.18;8.15;;;26.20;82.80;;;;;;1890734;75;21146;-72
2022/02/10 02:27:15;;;;;;;12.78;8.45;;;26.30;82.70;;;;;;1887347;75;21555;-71
2022/02/10 02:29:48;;;;;;;12.98;8.10;;;26.40;82.50;;;;;;1890149;75;21139;-71
2022/02/10 02:32:27;;;;;;;13.98;9.15;;;26.50;82.30;;;;;;1885435;75;22176;-72
2022/02/10 02:35:13;;;;;;;11.28;8.33;;;26.50;82.30;;;;;;1894293;75;21166;-72
2022/02/10 02:37:44;;;;;;;22.48;9.45;;;26.50;82.60;;;;;;1879015;75;21135;-72
2022/02/10 03:05:28;;;;;;;14.83;10.18;;;27.10;80.80;;;;;;1882511;75;21127;-72
2022/02/10 03:07:49;;;;;;;13.18;9.38;;;27.20;80.70;;;;;;1879691;76;21198;-71
2022/02/10 03:10:38;;;;;;;16.77;10.00;;;27.20;80.90;;;;;;1882306;75;21162;-70
2022/02/10 03:12:51;;;;;;;14.75;10.03;;;27.30;80.60;;;;;;1870073;76;21174;-71
2022/02/10 03:15:33;;;;;;;15.08;9.98;;;27.40;80.50;;;;;;1873820;76;21128;-71
2022/02/10 04:19:17;;;;;;;15.40;10.85;;;29.40;74.80;;;;;;1880054;76;21610;-78
2022/02/10 04:21:36;;;;;;;16.70;10.88;;;29.50;74.00;;;;;;1864949;76;21631;-77
2022/02/10 04:24:05;;;;;;;14.53;11.25;;;29.60;73.90;;;;;;1860505;76;21689;-79
2022/02/10 04:42:54;;;;;;;17.07;12.07;;;30.10;71.10;;;;;;1855777;76;21763;-79
2022/02/10 04:44:39;;;;;;;16.02;11.90;;;30.20;71.90;;;;;;1853823;76;21089;-80
2022/02/10 04:54:50;;;;;;;18.12;13.75;;;30.50;72.30;;;;;;1867792;76;21201;-79
2022/02/10 05:02:40;;;;;;;16.07;13.30;;;30.70;70.30;;;;;;1864263;76;21233;-78
2022/02/10 05:15:09;;;;;;;19.52;14.63;;;30.90;69.60;;;;;;1857439;76;21535;-72
2022/02/10 05:31:20;;;;;;;19.73;15.28;;;31.10;69.40;;;;;;1855634;76;21616;-71
2022/02/10 05:32:32;;;;;;;19.60;15.58;;;31.30;68.30;;;;;;1868250;76;21165;-71
2022/02/10 05:34:57;;;;;;;19.17;16.20;;;31.40;68.20;;;;;;1857440;76;21132;-73
2022/02/10 05:37:23;;;;;;;17.62;15.10;;;31.40;68.00;;;;;;1860382;76;21157;-72
2022/02/10 05:39:56;;;;;;;20.35;15.25;;;31.40;68.90;;;;;;1868946;76;21595;-71
2022/02/10 06:51:07;;;;;;;19.20;15.72;;;32.40;60.40;;;;;;1838698;76;21234;-70
2022/02/10 07:06:29;;;;;;;24.18;18.20;;;32.60;60.80;;;;;;1868526;75;21182;-70
2022/02/10 07:49:54;;;;;;;24.67;17.00;;;32.50;59.70;;;;;;1748997;81;21147;-71
2022/02/10 07:54:58;;;;;;;20.23;15.88;;;32.50;60.40;;;;;;1730404;82;21236;-69
2022/02/10 07:57:27;;;;;;;23.60;16.27;;;32.40;60.20;;;;;;1782008;80;21139;-71
2022/02/10 08:51:35;;;;;;;18.75;16.75;;;32.00;61.90;;;;;;1759076;81;22155;-70
2022/02/10 08:54:17;;;;;;;19.10;17.02;;;32.00;61.30;;;;;;1757874;81;21209;-70
2022/02/10 09:01:49;;;;;;;19.55;16.00;;;32.00;61.90;;;;;;1765512;80;21166;-70
2022/02/10 09:06:48;;;;;;;19.32;17.07;;;32.00;63.10;;;;;;1734008;81;21175;-70
2022/02/10 10:01:59;;;;;;;26.97;19.17;;;31.50;62.80;;;;;;1766180;80;21723;-70
2022/02/10 10:04:33;;;;;;;21.95;18.32;;;31.50;62.60;;;;;;1774337;80;21169;-71
2022/02/10 10:07:07;;;;;;;21.00;18.62;;;31.50;62.10;;;;;;1769912;79;21212;-71
2022/02/10 10:09:43;;;;;;;22.42;18.77;;;31.40;62.00;;;;;;1759182;80;21138;-70
2022/02/10 10:22:29;;;;;;;21.20;17.87;;;31.30;61.60;;;;;;1728718;83;21123;-71
2022/02/10 10:25:16;;;;;;;20.10;17.92;;;31.30;61.80;;;;;;1732464;82;21120;-70
2022/02/10 10:50:38;;;;;;;24.02;18.92;;;30.90;63.40;;;;;;1769209;80;21139;-71
2022/02/10 10:58:15;;;;;;;24.02;19.12;;;30.90;64.00;;;;;;1761652;80;21255;-70
2022/02/10 11:36:48;;;;;;;32.50;25.10;;;30.30;67.60;;;;;;1728903;83;21237;-71
2022/02/10 11:41:52;;;;;;;35.43;26.75;;;30.20;67.10;;;;;;1730581;81;21184;-71
2022/02/10 13:27:44;;;;;;;34.53;25.25;;;29.50;71.80;;;;;;1760228;80;21584;-73
2022/02/10 13:32:52;;;;;;;33.10;25.77;;;29.50;72.00;;;;;;1769835;80;21641;-71
2022/02/10 14:11:09;;;;;;;35.90;28.65;;;29.40;75.80;;;;;;1679516;84;21223;-71
2022/02/10 14:18:24;;;;;;;35.45;28.40;;;29.30;76.40;;;;;;1683003;84;21688;-72
2022/02/10 14:28:21;;;;;;;39.03;28.50;;;29.30;76.10;;;;;;1684924;85;21678;-71
2022/02/10 14:30:52;;;;;;;41.00;27.82;;;29.30;76.30;;;;;;1692449;85;21697;-71
2022/02/10 14:33:27;;;;;;;35.08;28.20;;;29.30;76.40;;;;;;1717190;82;21158;-71
2022/02/10 14:36:08;;;;;;;42.27;29.30;;;29.30;76.80;;;;;;1728969;82;21205;-72
2022/02/10 15:48:06;;;;;;;41.08;33.40;;;28.90;80.40;;;;;;1673908;84;21211;-80
2022/02/10 16:15:22;;;;;;;45.43;34.73;;;28.90;80.00;;;;;;1659513;85;21274;-83
2022/02/10 16:17:29;;;;;;;48.58;35.58;;;28.90;79.90;;;;;;1657168;86;21194;-81
2022/02/10 16:20:07;;;;;;;48.73;34.60;;;28.90;80.20;;;;;;1685259;85;21202;-82
2022/02/10 16:22:37;;;;;;;50.67;35.05;;;28.90;80.10;;;;;;1686425;84;21173;-81
2022/02/10 16:25:07;;;;;;;41.10;34.10;;;28.90;80.10;;;;;;1695266;83;21704;-81
2022/02/10 16:27:37;;;;;;;47.15;34.75;;;28.90;80.10;;;;;;1723568;82;21159;-81
2022/02/10 16:30:13;;;;;;;43.80;35.03;;;28.90;80.20;;;;;;1712324;84;21097;-82
2022/02/10 16:32:41;;;;;;;49.73;35.90;;;28.90;80.00;;;;;;1711674;84;21545;-81
2022/02/10 16:35:12;;;;;;;51.10;36.77;;;28.90;80.20;;;;;;1713548;82;21208;-81
2022/02/10 16:37:44;;;;;;;45.73;37.23;;;28.90;80.50;;;;;;1712605;82;21235;-81
2022/02/10 16:40:15;;;;;;;46.45;36.03;;;28.90;79.90;;;;;;1711711;82;22246;-82
2022/02/10 16:42:48;;;;;;;49.55;35.45;;;28.80;80.30;;;;;;1719003;82;21196;-81
2022/02/10 16:45:17;;;;;;;44.70;33.80;;;28.90;80.40;;;;;;1712240;82;21441;-81
2022/02/10 16:47:48;;;;;;;45.75;36.35;;;28.80;79.90;;;;;;1712006;84;21228;-81
2022/02/10 16:50:20;;;;;;;47.03;35.92;;;28.80;80.40;;;;;;1714122;81;21193;-81
2022/02/10 16:52:57;;;;;;;42.10;34.15;;;28.80;80.20;;;;;;1746232;82;21538;-81
2022/02/10 16:55:37;;;;;;;41.45;33.83;;;28.80;80.40;;;;;;1756562;81;21151;-81
2022/02/10 17:18:27;;;;;;;47.53;37.03;;;28.80;80.80;;;;;;1748674;81;21184;-82
2022/02/10 17:20:50;;;;;;;47.80;37.35;;;28.80;80.80;;;;;;1748535;82;21204;-82
2022/02/10 17:26:01;;;;;;;45.83;36.90;;;28.70;81.00;;;;;;1743928;81;21214;-81
2022/02/10 17:28:22;;;;;;;47.55;36.40;;;28.70;81.00;;;;;;1719033;82;21221;-82
2022/02/10 17:33:50;;;;;;;50.83;39.55;;;28.70;81.10;;;;;;1749093;81;21284;-81
2022/02/10 17:46:22;;;;;;;50.50;38.78;;;28.60;81.60;;;;;;1748587;81;21241;-82
2022/02/10 17:53:49;;;;;;;48.17;39.88;;;28.50;82.30;;;;;;1713779;82;21554;-81
2022/02/10 17:56:21;;;;;;;49.30;40.58;;;28.50;82.50;;;;;;1711756;84;21123;-81
2022/02/10 17:58:52;;;;;;;48.73;40.03;;;28.50;82.70;;;;;;1713072;82;21176;-81
2022/02/10 18:01:23;;;;;;;45.98;39.67;;;28.50;82.80;;;;;;1737724;82;21180;-81
2022/02/10 18:03:53;;;;;;;48.38;40.12;;;28.50;83.10;;;;;;1738172;82;21111;-81
2022/02/10 18:06:28;;;;;;;50.65;39.60;;;28.50;83.10;;;;;;1721420;82;21250;-81
2022/02/10 18:16:49;;;;;;;48.50;40.48;;;28.40;83.00;;;;;;1712056;84;21251;-81
2022/02/10 18:19:17;;;;;;;53.17;41.10;;;28.40;83.50;;;;;;1706753;84;21730;-80
2022/02/10 18:38:13;;;;;;;46.02;39.58;;;28.30;82.20;;;;;;1684814;84;21769;-81
2022/02/10 19:09:56;;;;;;;52.30;40.15;;;28.10;83.70;;;;;;1742355;81;21261;-82
2022/02/10 19:12:32;;;;;;;51.85;41.05;;;28.10;83.50;;;;;;1744829;81;21757;-82
2022/02/10 19:15:10;;;;;;;53.35;42.10;;;28.00;83.80;;;;;;1743139;81;21239;-81
2022/02/10 19:17:36;;;;;;;60.90;43.52;;;28.00;84.50;;;;;;1712904;84;21248;-82
2022/02/10 19:20:06;;;;;;;56.98;43.55;;;28.00;85.40;;;;;;1754533;81;21245;-82
2022/02/10 19:22:44;;;;;;;53.23;43.85;;;28.00;85.20;;;;;;1758198;81;21670;-82
2022/02/10 19:25:12;;;;;;;60.03;44.18;;;27.90;85.40;;;;;;1735026;81;21243;-83
2022/02/10 19:27:44;;;;;;;57.15;44.25;;;27.90;85.70;;;;;;1747701;81;21174;-82
2022/02/10 19:30:16;;;;;;;57.33;45.17;;;27.90;86.60;;;;;;1743127;81;21305;-82
2022/02/10 19:32:58;;;;;;;57.73;44.45;;;27.90;86.60;;;;;;1745558;81;21252;-81
2022/02/10 19:35:23;;;;;;;56.70;43.75;;;27.80;86.60;;;;;;1743480;81;21224;-80
2022/02/10 19:37:57;;;;;;;58.85;43.68;;;27.80;86.60;;;;;;1743591;81;21161;-80
2022/02/10 19:40:29;;;;;;;54.42;43.13;;;27.80;86.50;;;;;;1743445;81;21226;-81
2022/02/10 19:43:00;;;;;;;58.02;43.58;;;27.70;86.70;;;;;;1748100;80;21241;-82
2022/02/10 19:45:31;;;;;;;56.40;43.25;;;27.70;86.90;;;;;;1748160;81;21120;-82
2022/02/10 19:48:03;;;;;;;59.45;44.42;;;27.70;86.90;;;;;;1748767;79;21151;-83
2022/02/10 19:50:34;;;;;;;56.02;42.53;;;27.70;87.20;;;;;;1746547;80;21216;-82
2022/02/10 19:53:09;;;;;;;56.50;43.28;;;27.70;87.20;;;;;;1748403;81;21189;-81
2022/02/10 19:55:42;;;;;;;51.60;41.13;;;27.60;86.80;;;;;;1730361;81;21742;-82
2022/02/10 19:58:13;;;;;;;57.23;41.05;;;27.60;86.20;;;;;;1696782;82;21123;-81
2022/02/10 20:00:45;;;;;;;58.98;42.45;;;27.60;86.10;;;;;;1682444;84;21222;-82
2022/02/10 20:03:18;;;;;;;52.90;40.63;;;27.60;85.80;;;;;;1705395;84;21233;-82
2022/02/10 20:05:50;;;;;;;47.98;38.48;;;27.60;85.60;;;;;;1689686;84;21226;-82
2022/02/10 20:08:23;;;;;;;55.80;41.98;;;27.60;85.20;;;;;;1685734;84;21246;-80
2022/02/10 20:10:55;;;;;;;56.45;42.95;;;27.60;86.20;;;;;;1692703;84;21734;-82
2022/02/10 20:13:28;;;;;;;53.52;41.95;;;27.60;86.70;;;;;;1692177;84;21139;-81
2022/02/10 20:16:06;;;;;;;53.73;40.08;;;27.50;86.40;;;;;;1685397;84;21187;-81
2022/02/10 20:18:32;;;;;;;48.80;39.45;;;27.50;86.40;;;;;;1685366;84;21155;-82
2022/02/10 20:21:04;;;;;;;54.13;41.25;;;27.40;86.50;;;;;;1694495;83;21226;-81
2022/02/10 20:23:34;;;;;;;53.13;40.98;;;27.40;86.80;;;;;;1712425;82;21152;-83
2022/02/10 20:26:07;;;;;;;52.40;41.85;;;27.30;86.80;;;;;;1713114;82;21217;-80
2022/02/10 20:28:38;;;;;;;54.88;41.10;;;27.30;86.40;;;;;;1712152;84;21202;-81
2022/02/10 20:31:10;;;;;;;52.03;41.53;;;27.20;86.20;;;;;;1712368;82;21207;-81
2022/02/10 20:33:43;;;;;;;53.87;40.20;;;27.20;86.30;;;;;;1712218;82;21204;-81
2022/02/10 20:36:15;;;;;;;55.17;40.48;;;27.20;87.40;;;;;;1699254;82;21335;-82
2022/02/10 20:38:49;;;;;;;52.33;39.95;;;27.20;86.50;;;;;;1715783;82;21261;-82
2022/02/10 20:41:19;;;;;;;54.80;39.65;;;27.20;86.50;;;;;;1717348;82;21735;-83
2022/02/10 20:43:54;;;;;;;51.70;40.85;;;27.20;87.00;;;;;;1717126;82;21183;-83
2022/02/10 20:46:24;;;;;;;49.77;39.42;;;27.20;87.30;;;;;;1712890;82;21246;-82
2022/02/10 20:48:54;;;;;;;46.40;39.20;;;27.20;87.20;;;;;;1712470;82;22219;-82
2022/02/10 20:51:25;;;;;;;63.70;48.28;;;27.20;87.50;;;;;;1711986;84;21237;-83
2022/02/10 20:53:56;;;;;;;50.95;42.45;;;27.20;87.90;;;;;;1712229;82;21208;-81
2022/02/10 20:56:27;;;;;;;51.98;40.98;;;27.20;87.90;;;;;;1712235;82;21220;-82
2022/02/10 20:59:06;;;;;;;47.90;39.67;;;27.10;88.20;;;;;;1712351;82;21185;-82
2022/02/10 21:01:30;;;;;;;58.48;39.40;;;27.10;88.30;;;;;;1685934;84;21198;-81
2022/02/10 21:04:02;;;;;;;48.63;38.92;;;27.10;88.60;;;;;;1684456;85;21684;-83
2022/02/10 21:09:14;;;;;;;47.13;39.13;;;27.00;88.90;;;;;;1684578;85;21888;-82
2022/02/10 21:11:37;;;;;;;50.52;39.85;;;27.00;89.00;;;;;;1685372;84;21228;-81
2022/02/10 21:14:15;;;;;;;48.92;39.27;;;26.90;89.00;;;;;;1694060;84;21270;-82
2022/02/10 21:16:42;;;;;;;51.95;39.13;;;27.00;89.10;;;;;;1685143;84;21123;-82
2022/02/10 21:19:16;;;;;;;47.90;35.90;;;27.00;89.00;;;;;;1685791;84;21143;-82
2022/02/10 21:21:45;;;;;;;49.83;37.85;;;27.00;88.60;;;;;;1696034;84;21250;-82
2022/02/10 21:24:24;;;;;;;50.43;39.13;;;27.00;87.90;;;;;;1684419;85;21198;-83
2022/02/10 21:29:22;;;;;;;52.03;39.33;;;27.10;88.60;;;;;;1725488;82;21110;-82
2022/02/10 21:31:53;;;;;;;52.17;39.80;;;27.00;88.60;;;;;;1737090;82;21113;-83
2022/02/10 21:34:28;;;;;;;53.35;38.90;;;27.00;88.90;;;;;;1738703;82;21252;-82
2022/02/10 21:37:12;;;;;;;52.55;41.88;;;26.90;88.80;;;;;;1728932;82;21576;-82
2022/02/10 21:39:41;;;;;;;57.85;40.80;;;26.90;89.00;;;;;;1683480;84;21635;-83
2022/02/10 22:10:08;;;;;;;68.15;46.75;;;26.70;90.30;;;;;;1742648;81;21233;-81
2022/02/10 22:20:19;;;;;;;59.83;43.30;;;26.70;90.20;;;;;;1746547;81;21273;-81
2022/02/10 22:22:50;;;;;;;61.02;45.60;;;26.80;90.80;;;;;;1742772;81;21169;-81
2022/02/10 22:25:14;;;;;;;61.23;42.98;;;26.70;90.20;;;;;;1742314;82;21734;-81
2022/02/10 22:27:48;;;;;;;64.03;44.93;;;26.70;90.20;;;;;;1746922;81;21217;-80
2022/02/10 22:30:28;;;;;;;61.80;44.20;;;26.70;90.20;;;;;;1712643;82;21234;-80
2022/02/10 22:33:09;;;;;;;61.10;45.12;;;26.70;90.40;;;;;;1744244;81;21662;-81
2022/02/10 22:35:22;;;;;;;64.72;46.75;;;26.70;90.50;;;;;;1754190;81;21186;-80
2022/02/10 22:37:56;;;;;;;67.03;47.08;;;26.60;90.50;;;;;;1731918;81;21142;-81
2022/02/10 22:40:57;;;;;;;64.67;48.85;;;26.60;90.60;;;;;;1742652;81;21245;-80
2022/02/10 22:42:57;;;;;;;64.53;45.98;;;26.60;90.60;;;;;;1741561;81;21218;-80
2022/02/10 22:45:27;;;;;;;61.70;46.23;;;26.60;90.60;;;;;;1743218;81;21214;-81
2022/02/10 22:47:58;;;;;;;66.40;47.38;;;26.60;90.80;;;;;;1739726;81;21234;-79
2022/02/10 22:50:29;;;;;;;67.53;48.08;;;26.60;90.80;;;;;;1743696;81;21245;-81
2022/02/10 22:52:59;;;;;;;64.90;46.98;;;26.60;90.90;;;;;;1755708;81;21717;-80
2022/02/10 22:55:31;;;;;;;64.60;46.85;;;26.50;91.30;;;;;;1745304;81;21173;-82
2022/02/10 22:58:02;;;;;;;62.98;46.73;;;26.50;91.00;;;;;;1732860;81;21196;-81
2022/02/10 23:00:45;;;;;;;63.00;46.28;;;26.50;91.00;;;;;;1710988;82;21137;-81
2022/02/10 23:03:09;;;;;;;62.67;50.30;;;26.40;91.10;;;;;;1718746;82;21212;-80
2022/02/10 23:05:40;;;;;;;67.35;49.15;;;26.40;91.20;;;;;;1711419;82;21110;-81
2022/02/10 23:08:11;;;;;;;65.05;48.13;;;26.40;91.30;;;;;;1712110;82;21188;-81
2022/02/10 23:10:47;;;;;;;62.73;48.13;;;26.40;91.30;;;;;;1713422;82;21289;-81
2022/02/10 23:13:17;;;;;;;77.78;50.65;;;26.40;91.20;;;;;;1699917;82;21252;-81
2022/02/10 23:15:48;;;;;;;64.47;49.60;;;26.40;91.00;;;;;;1721841;82;21094;-81
2022/02/10 23:18:22;;;;;;;64.10;48.02;;;26.50;91.10;;;;;;1728363;82;21549;-82
2022/02/10 23:20:55;;;;;;;64.55;47.55;;;26.60;91.00;;;;;;1716124;82;21193;-82
2022/02/10 23:23:29;;;;;;;64.45;48.48;;;26.50;90.50;;;;;;1726139;82;21113;-82
2022/02/10 23:26:02;;;;;;;63.85;48.68;;;26.60;90.40;;;;;;1694446;82;21122;-80
2022/02/10 23:28:35;;;;;;;65.42;49.45;;;26.60;90.20;;;;;;1711437;82;21647;-81
2022/02/10 23:31:10;;;;;;;67.08;49.25;;;26.70;90.10;;;;;;1712260;82;21185;-81
2022/02/10 23:33:44;;;;;;;67.58;48.68;;;26.70;90.40;;;;;;1712173;82;21275;-81
2022/02/10 23:38:57;;;;;;;65.92;48.30;;;26.70;90.50;;;;;;1712085;82;21164;-81
2022/02/10 23:43:52;;;;;;;62.25;48.38;;;26.60;90.60;;;;;;1712088;82;21665;-81
2022/02/10 23:46:23;;;;;;;63.28;48.68;;;26.60;90.70;;;;;;1712226;82;21200;-81
2022/02/10 23:48:55;;;;;;;66.15;48.20;;;26.60;90.50;;;;;;1711289;82;21188;-82
2022/02/10 23:51:31;;;;;;;57.75;45.95;;;26.60;89.70;;;;;;1731608;82;21138;-81
2022/02/10 23:53:59;;;;;;;53.17;42.78;;;26.60;89.50;;;;;;1730828;81;21296;-81
2022/02/10 23:56:35;;;;;;;50.30;42.55;;;26.60;89.20;;;;;;1712078;82;21620;-82
2022/02/10 23:59:11;;;;;;;52.60;40.80;;;26.60;88.90;;;;;;1715484;82;21739;-78
